Time;durP1;ratioP1;P1;durP2;ratioP2;P2;SDS_P1;SDS_P2;PMS_P1;PMS_P2;Temp;Humidity;BMP_temperature;BMP_pressure;BME280_temperature;BME280_humidity;BME280_pressure;Samples;Min_cycle;Max_cycle;Signal;HPM_P1;HPM_P2
2023/02/04 00:01:23;;;;;;;54.13;50.42;;;;;;;0.57;100.00;100943.88;5023156;28;20053;-81
2023/02/04 00:03:51;;;;;;;52.90;49.30;;;;;;;0.48;100.00;100932.44;5024071;28;20104;-81
2023/02/04 00:06:18;;;;;;;50.97;47.13;;;;;;;0.44;100.00;100931.06;5020241;28;20484;-81
2023/02/04 00:08:46;;;;;;;52.97;49.17;;;;;;;0.57;100.00;100934.25;5029558;28;20046;-81
2023/02/04 00:11:12;;;;;;;50.72;47.30;;;;;;;0.55;100.00;100930.97;5014579;28;20054;-81
2023/02/04 00:13:39;;;;;;;52.88;49.00;;;;;;;0.41;100.00;100921.72;5019791;28;20045;-81
2023/02/04 00:16:07;;;;;;;47.38;44.08;;;;;;;0.29;100.00;100917.56;5023925;28;20045;-81
2023/02/04 00:18:33;;;;;;;47.67;44.38;;;;;;;0.34;100.00;100909.34;5022215;28;20057;-82
2023/02/04 00:21:00;;;;;;;47.13;43.67;;;;;;;0.30;100.00;100913.16;5021659;28;20045;-81
2023/02/04 00:23:27;;;;;;;53.30;49.25;;;;;;;0.28;100.00;100905.47;5029276;28;20477;-79
2023/02/04 00:25:55;;;;;;;49.28;45.88;;;;;;;0.22;100.00;100903.41;5019390;28;20053;-79
2023/02/04 00:28:21;;;;;;;48.55;45.03;;;;;;;0.13;100.00;100891.13;5022880;28;20104;-81
2023/02/04 00:30:48;;;;;;;48.97;45.38;;;;;;;0.13;100.00;100894.56;5017028;28;20650;-81
2023/02/04 00:33:15;;;;;;;48.60;45.00;;;;;;;0.16;100.00;100891.69;5022390;28;20050;-81
2023/02/04 00:35:41;;;;;;;48.17;44.67;;;;;;;0.10;100.00;100886.19;5023840;28;20467;-79
2023/02/04 00:38:08;;;;;;;48.95;45.45;;;;;;;0.08;100.00;100868.00;5021938;28;20107;-79
2023/02/04 00:40:35;;;;;;;49.40;45.70;;;;;;;0.16;100.00;100881.25;5020556;28;20491;-81
2023/02/04 00:43:03;;;;;;;47.13;43.40;;;;;;;0.14;100.00;100877.09;5022074;28;20053;-81
2023/02/04 00:45:30;;;;;;;44.58;41.30;;;;;;;0.15;100.00;100868.31;5021549;28;20481;-81
2023/02/04 00:47:57;;;;;;;47.92;44.40;;;;;;;0.11;100.00;100864.31;5021757;28;20042;-81
2023/02/04 00:50:24;;;;;;;45.92;42.72;;;;;;;0.12;100.00;100861.59;5021206;28;20054;-81
2023/02/04 00:52:51;;;;;;;48.08;44.67;;;;;;;0.04;100.00;100847.53;5019603;28;20046;-82
2023/02/04 00:55:18;;;;;;;46.63;43.63;;;;;;;0.12;100.00;100858.97;5015453;28;20050;-81
2023/02/04 00:57:46;;;;;;;47.60;44.15;;;;;;;0.05;100.00;100846.56;5021029;28;20053;-81
2023/02/04 01:00:16;;;;;;;47.00;43.50;;;;;;;0.11;100.00;100846.03;5019470;28;20077;-81
2023/02/04 01:02:42;;;;;;;47.50;43.88;;;;;;;0.06;100.00;100836.00;5022070;28;20474;-81
2023/02/04 01:05:10;;;;;;;46.42;43.13;;;;;;;-0.04;100.00;100820.28;5020618;28;20081;-81
2023/02/04 01:07:36;;;;;;;46.80;43.45;;;;;;;0.08;100.00;100815.78;5016464;28;20042;-82
2023/02/04 01:10:04;;;;;;;45.80;42.67;;;;;;;0.10;100.00;100813.88;5019908;28;20046;-81
2023/02/04 01:12:30;;;;;;;48.72;45.28;;;;;;;0.05;100.00;100817.84;5022903;28;20549;-82
2023/02/04 01:14:57;;;;;;;47.20;43.80;;;;;;;0.08;100.00;100818.38;5025320;28;20084;-81
2023/02/04 01:17:25;;;;;;;43.38;40.50;;;;;;;0.07;100.00;100802.88;5025233;28;20120;-79
2023/02/04 01:19:52;;;;;;;45.17;42.17;;;;;;;0.14;100.00;100803.97;5025190;28;20045;-79
2023/02/04 01:22:19;;;;;;;45.58;42.60;;;;;;;0.16;100.00;100796.81;5026160;28;20058;-79
2023/02/04 01:24:45;;;;;;;44.53;41.63;;;;;;;0.14;100.00;100788.28;5028620;28;20050;-81
2023/02/04 01:27:12;;;;;;;43.83;40.92;;;;;;;0.27;100.00;100782.78;5020417;28;20093;-81
2023/02/04 01:29:39;;;;;;;44.90;42.08;;;;;;;0.54;100.00;100774.25;5028736;28;20477;-81
2023/02/04 01:32:05;;;;;;;44.85;42.10;;;;;;;0.51;100.00;100762.28;5026580;28;20576;-81
2023/02/04 01:34:33;;;;;;;43.40;40.70;;;;;;;0.61;100.00;100751.84;5026797;28;20103;-81
2023/02/04 01:37:00;;;;;;;43.80;41.03;;;;;;;0.70;100.00;100758.84;5020828;28;20054;-82
2023/02/04 01:39:27;;;;;;;42.40;39.72;;;;;;;0.61;100.00;100749.22;5018440;28;20489;-81
2023/02/04 01:41:54;;;;;;;40.25;37.75;;;;;;;0.60;100.00;100743.16;5023694;28;20057;-82
2023/02/04 01:44:21;;;;;;;40.38;38.05;;;;;;;0.65;100.00;100743.56;5026899;28;20565;-81
2023/02/04 01:46:47;;;;;;;43.97;41.17;;;;;;;0.62;100.00;100738.63;5024896;28;20573;-81
2023/02/04 01:49:14;;;;;;;43.50;40.80;;;;;;;0.61;100.00;100736.16;5021193;28;20054;-81
2023/02/04 01:51:43;;;;;;;42.08;39.38;;;;;;;0.71;100.00;100734.34;5024066;28;20568;-81
2023/02/04 01:54:11;;;;;;;44.40;41.75;;;;;;;0.60;100.00;100724.03;5029875;28;20049;-79
2023/02/04 01:56:40;;;;;;;44.70;42.00;;;;;;;0.74;100.00;100715.75;5026164;28;20041;-79
2023/02/04 01:59:12;;;;;;;43.58;40.67;;;;;;;0.74;100.00;100707.91;5026672;28;20046;-79
2023/02/04 02:01:41;;;;;;;44.77;41.47;;;;;;;0.78;100.00;100703.22;5025719;28;20108;-81
2023/02/04 02:04:09;;;;;;;54.50;49.17;;;;;;;0.82;100.00;100704.59;5024096;28;20297;-81
2023/02/04 02:06:38;;;;;;;43.72;41.08;;;;;;;0.79;100.00;100699.66;5024122;28;20107;-81
2023/02/04 02:09:06;;;;;;;42.22;39.55;;;;;;;0.73;100.00;100687.97;5030396;28;20473;-81
2023/02/04 02:11:33;;;;;;;42.17;39.67;;;;;;;0.83;100.00;100693.97;5021864;28;20552;-82
2023/02/04 02:14:00;;;;;;;45.10;41.80;;;;;;;0.82;100.00;100687.09;5024296;28;20046;-81
2023/02/04 02:16:27;;;;;;;43.20;40.60;;;;;;;0.76;100.00;100679.84;5023749;28;20045;-81
2023/02/04 02:18:56;;;;;;;43.90;41.20;;;;;;;0.78;100.00;100677.88;5017450;28;20578;-81
2023/02/04 02:21:32;;;;;;;43.83;40.97;;;;;;;0.82;100.00;100676.66;5023079;28;20474;-81
2023/02/04 02:24:00;;;;;;;43.33;40.42;;;;;;;0.86;100.00;100669.34;5030840;28;20053;-81
2023/02/04 02:26:28;;;;;;;44.70;41.90;;;;;;;0.92;100.00;100660.91;5024416;28;20154;-82
2023/02/04 02:28:55;;;;;;;45.00;42.05;;;;;;;0.90;100.00;100658.44;5025964;28;20107;-81
2023/02/04 02:31:22;;;;;;;43.88;41.28;;;;;;;0.93;100.00;100661.72;5027598;28;20481;-79
2023/02/04 02:33:49;;;;;;;43.63;40.92;;;;;;;0.89;100.00;100654.16;5022316;28;20470;-79
2023/02/04 02:36:16;;;;;;;44.85;42.10;;;;;;;0.95;100.00;100657.19;5023934;28;20096;-79
2023/02/04 02:38:43;;;;;;;43.90;41.00;;;;;;;0.99;100.00;100651.50;5023756;28;20112;-79
2023/02/04 02:41:11;;;;;;;41.97;39.30;;;;;;;1.08;100.00;100647.19;5020846;28;20054;-81
2023/02/04 02:43:38;;;;;;;42.47;39.67;;;;;;;1.12;100.00;100643.31;5025379;28;20042;-81
2023/02/04 02:46:06;;;;;;;42.13;39.33;;;;;;;1.11;100.00;100631.22;5026012;28;20054;-79
2023/02/04 02:48:33;;;;;;;43.03;40.40;;;;;;;1.02;100.00;100627.69;5025472;28;20042;-79
2023/02/04 02:51:00;;;;;;;45.00;42.10;;;;;;;1.15;100.00;100629.97;5027747;28;20053;-79
2023/02/04 02:53:26;;;;;;;44.58;41.88;;;;;;;1.10;100.00;100621.72;5024624;28;20111;-81
2023/02/04 02:58:35;;;;;;;43.33;40.65;;;;;;;1.31;100.00;100611.81;5135029;27;20782;-80
2023/02/04 03:01:05;;;;;;;42.83;40.15;;;;;;;1.36;100.00;100606.97;5089822;28;20052;-80
2023/02/04 03:03:35;;;;;;;44.72;41.95;;;;;;;1.35;100.00;100613.16;5088721;28;20475;-80
2023/02/04 03:06:07;;;;;;;44.60;41.83;;;;;;;1.33;100.00;100604.66;5089553;28;20048;-80
2023/02/04 03:08:35;;;;;;;44.58;41.80;;;;;;;1.38;100.00;100599.78;5065581;28;20361;-80
2023/02/04 03:11:02;;;;;;;46.83;43.72;;;;;;;1.42;100.00;100595.06;5087112;28;20082;-80
2023/02/04 03:13:29;;;;;;;44.95;41.78;;;;;;;1.43;100.00;100578.41;5088449;28;20048;-81
2023/02/04 03:15:57;;;;;;;44.00;41.05;;;;;;;1.48;100.00;100585.78;5089677;28;20044;-80
2023/02/04 03:18:24;;;;;;;43.03;40.22;;;;;;;1.42;100.00;100571.50;5088637;28;20103;-80
2023/02/04 03:20:52;;;;;;;44.85;41.70;;;;;;;1.35;100.00;100567.84;5089445;28;20044;-80
2023/02/04 03:23:19;;;;;;;44.30;41.33;;;;;;;1.31;100.00;100556.84;5076005;28;20053;-80
2023/02/04 03:25:46;;;;;;;44.83;41.90;;;;;;;1.40;100.00;100554.31;5089791;28;20052;-80
2023/02/04 03:28:13;;;;;;;45.17;42.38;;;;;;;1.43;100.00;100549.59;5086575;28;20060;-80
2023/02/04 03:30:40;;;;;;;45.28;42.45;;;;;;;1.41;100.00;100542.88;5089766;28;20399;-80
2023/02/04 03:33:08;;;;;;;43.85;41.03;;;;;;;1.43;100.00;100535.69;5089380;28;20102;-80
2023/02/04 03:35:34;;;;;;;45.58;42.58;;;;;;;1.34;100.00;100534.81;5088860;28;20052;-80
2023/02/04 03:38:01;;;;;;;46.42;43.22;;;;;;;1.39;100.00;100532.53;5084605;28;20048;-80
2023/02/04 03:40:28;;;;;;;45.03;41.90;;;;;;;1.43;100.00;100523.44;5087415;28;20101;-80
2023/02/04 03:42:55;;;;;;;44.83;41.83;;;;;;;1.46;100.00;100530.16;5088953;28;20048;-80
2023/02/04 03:45:22;;;;;;;42.92;40.13;;;;;;;1.47;100.00;100524.75;5088818;28;20113;-80
2023/02/04 03:47:48;;;;;;;44.15;41.25;;;;;;;1.50;100.00;100524.47;5087762;28;20041;-80
2023/02/04 03:50:17;;;;;;;42.78;39.97;;;;;;;1.56;100.00;100525.66;5089325;28;20048;-80
2023/02/04 03:52:44;;;;;;;42.42;39.65;;;;;;;1.54;100.00;100522.34;5076126;28;20699;-80
2023/02/04 03:55:11;;;;;;;43.65;40.85;;;;;;;1.60;100.00;100519.13;5084984;28;20083;-80
2023/02/04 03:57:37;;;;;;;43.28;40.58;;;;;;;1.55;100.00;100516.97;5078981;28;20053;-80
2023/02/04 04:00:05;;;;;;;44.30;41.50;;;;;;;1.60;100.00;100521.75;5082443;28;20117;-80
2023/02/04 04:05:12;;;;;;;44.25;41.45;;;;;;;1.66;100.00;100502.00;5137700;27;20389;-80
2023/02/04 04:07:39;;;;;;;44.75;41.88;;;;;;;1.63;100.00;100502.31;5109960;28;20048;-80
2023/02/04 04:10:06;;;;;;;45.58;42.67;;;;;;;1.65;100.00;100498.56;5100807;28;20106;-80
2023/02/04 04:12:32;;;;;;;44.70;41.70;;;;;;;1.65;100.00;100495.94;5102384;28;20043;-80
2023/02/04 04:14:59;;;;;;;46.67;43.75;;;;;;;1.71;100.00;100495.31;5099834;28;20112;-80
2023/02/04 04:17:26;;;;;;;46.35;43.45;;;;;;;1.71;100.00;100481.41;5103350;28;20047;-80
2023/02/04 04:19:53;;;;;;;45.75;42.85;;;;;;;1.77;100.00;100481.63;5097977;28;20109;-80
2023/02/04 04:22:21;;;;;;;43.42;40.63;;;;;;;1.81;100.00;100488.19;5106800;28;20048;-80
2023/02/04 04:24:47;;;;;;;46.03;43.05;;;;;;;1.76;100.00;100472.13;5104433;28;20081;-80
2023/02/04 04:27:14;;;;;;;46.50;43.50;;;;;;;1.81;100.00;100475.09;5100193;28;20605;-80
2023/02/04 04:29:41;;;;;;;46.17;43.25;;;;;;;1.85;100.00;100473.00;5102910;28;20048;-80
2023/02/04 04:32:08;;;;;;;46.55;43.65;;;;;;;1.88;100.00;100470.06;5098036;28;20097;-80
2023/02/04 04:34:35;;;;;;;46.78;43.67;;;;;;;1.88;100.00;100472.69;5102428;28;20043;-80
2023/02/04 04:37:01;;;;;;;45.38;42.47;;;;;;;1.96;100.00;100466.66;5101546;28;20138;-80
2023/02/04 04:39:29;;;;;;;46.97;43.88;;;;;;;2.04;100.00;100458.84;5084998;28;20113;-80
2023/02/04 04:41:56;;;;;;;47.90;44.80;;;;;;;2.02;100.00;100463.41;5099133;28;20114;-80
2023/02/04 04:44:23;;;;;;;49.03;45.92;;;;;;;2.08;100.00;100459.34;5099001;28;20039;-80
2023/02/04 04:46:50;;;;;;;47.55;44.25;;;;;;;2.03;100.00;100455.41;5100247;28;20044;-80
2023/02/04 04:49:16;;;;;;;46.60;43.55;;;;;;;2.13;100.00;100457.91;5100091;28;20044;-80
2023/02/04 04:51:43;;;;;;;46.53;43.42;;;;;;;2.16;100.00;100460.22;5098896;28;20047;-80
2023/02/04 04:54:10;;;;;;;44.22;41.53;;;;;;;2.16;100.00;100454.97;5105206;28;20510;-80
2023/02/04 04:56:38;;;;;;;47.10;43.88;;;;;;;2.26;100.00;100466.13;5101883;28;20043;-80
2023/02/04 04:59:05;;;;;;;47.25;44.15;;;;;;;2.29;100.00;100475.50;5101237;28;20048;-80
2023/02/04 05:01:31;;;;;;;46.70;43.78;;;;;;;2.32;100.00;100469.94;5099410;28;20485;-80
2023/02/04 05:03:58;;;;;;;45.05;42.15;;;;;;;2.34;100.00;100465.38;5099788;28;20044;-80
2023/02/04 05:06:25;;;;;;;45.97;43.13;;;;;;;2.28;100.00;100472.06;5097668;28;20108;-80
2023/02/04 05:08:52;;;;;;;45.05;42.35;;;;;;;2.26;100.00;100466.13;5106395;28;20097;-80
2023/02/04 05:11:18;;;;;;;45.58;42.60;;;;;;;2.34;100.00;100472.41;5099168;28;20475;-81
2023/02/04 05:13:47;;;;;;;44.70;41.80;;;;;;;2.32;100.00;100461.25;5099865;28;20048;-80
2023/02/04 05:16:13;;;;;;;44.20;41.40;;;;;;;2.40;100.00;100472.59;5087026;28;20225;-80
2023/02/04 05:18:41;;;;;;;45.22;42.13;;;;;;;2.43;100.00;100468.84;5087919;28;20047;-80
2023/02/04 05:21:08;;;;;;;45.95;43.05;;;;;;;2.41;100.00;100468.97;5086771;28;20135;-80
2023/02/04 05:23:35;;;;;;;45.60;42.72;;;;;;;2.39;100.00;100463.09;5076300;28;20114;-80
2023/02/04 05:26:01;;;;;;;45.00;42.10;;;;;;;2.33;100.00;100474.22;5085737;28;20110;-80
2023/02/04 05:28:28;;;;;;;45.42;42.53;;;;;;;2.33;100.00;100471.59;5080968;28;20052;-80
2023/02/04 05:30:56;;;;;;;49.05;45.95;;;;;;;2.19;100.00;100453.84;5080408;28;20102;-80
2023/02/04 05:33:23;;;;;;;47.70;44.50;;;;;;;2.34;100.00;100475.03;5085379;28;20044;-80
2023/02/04 05:35:49;;;;;;;47.25;43.75;;;;;;;2.39;100.00;100467.50;5085339;28;20044;-80
2023/02/04 05:38:16;;;;;;;45.40;42.50;;;;;;;2.60;100.00;100478.38;5085004;28;20497;-80
2023/02/04 05:40:43;;;;;;;47.25;44.25;;;;;;;2.51;100.00;100477.56;5083932;28;20052;-80
2023/02/04 05:43:10;;;;;;;43.88;41.10;;;;;;;2.55;100.00;100475.44;5084475;28;20048;-80
2023/02/04 05:45:36;;;;;;;45.05;42.15;;;;;;;2.51;100.00;100474.09;5089224;28;20519;-80
2023/02/04 05:48:05;;;;;;;44.53;41.65;;;;;;;2.67;100.00;100473.34;5085107;28;20097;-81
2023/02/04 05:50:31;;;;;;;45.25;42.28;;;;;;;2.66;100.00;100483.00;5084321;28;20056;-80
2023/02/04 05:52:58;;;;;;;44.90;42.00;;;;;;;2.55;100.00;100482.47;5089930;28;20493;-80
2023/02/04 05:55:25;;;;;;;45.53;42.42;;;;;;;2.51;100.00;100485.41;5089020;28;20044;-80
2023/02/04 05:57:51;;;;;;;45.83;42.78;;;;;;;2.46;100.00;100474.59;5085327;28;20052;-80
2023/02/04 06:00:19;;;;;;;44.67;42.08;;;;;;;2.59;100.00;100484.63;5085098;28;20040;-80
2023/02/04 06:02:46;;;;;;;44.13;41.33;;;;;;;2.53;100.00;100482.63;5083890;28;20098;-80
2023/02/04 06:05:14;;;;;;;45.05;42.00;;;;;;;2.45;100.00;100493.06;5082907;28;20049;-80
2023/02/04 06:07:40;;;;;;;44.28;41.63;;;;;;;2.54;100.00;100489.50;5089055;28;20491;-80
2023/02/04 06:10:07;;;;;;;44.95;41.80;;;;;;;2.46;100.00;100479.81;5085593;28;20044;-80
2023/02/04 06:12:34;;;;;;;43.47;40.67;;;;;;;2.47;100.00;100481.44;5080057;28;20049;-80
2023/02/04 06:15:01;;;;;;;44.35;41.55;;;;;;;2.46;100.00;100477.19;5083267;28;20047;-80
2023/02/04 06:17:27;;;;;;;44.20;41.30;;;;;;;2.49;100.00;100483.94;5081748;28;20044;-80
2023/02/04 06:19:54;;;;;;;44.78;41.97;;;;;;;2.48;100.00;100483.13;5079354;28;20517;-80
2023/02/04 06:22:23;;;;;;;44.17;41.47;;;;;;;2.58;100.00;100471.69;5086274;28;20109;-80
2023/02/04 06:24:50;;;;;;;44.28;41.47;;;;;;;2.52;100.00;100473.13;5087773;28;20132;-81
2023/02/04 06:27:22;;;;;;;45.28;42.40;;;;;;;2.57;100.00;100478.69;5083878;28;20428;-80
2023/02/04 06:29:48;;;;;;;45.35;42.55;;;;;;;2.60;100.00;100488.88;5088434;28;20130;-80
2023/02/04 06:32:15;;;;;;;55.85;50.47;;;;;;;2.70;100.00;100486.13;5083679;28;20494;-81
2023/02/04 06:34:42;;;;;;;45.78;42.55;;;;;;;2.70;100.00;100494.00;5087009;28;20135;-80
2023/02/04 06:37:09;;;;;;;47.92;44.17;;;;;;;2.71;100.00;100490.38;5080507;28;20491;-80
2023/02/04 06:39:37;;;;;;;54.38;49.53;;;;;;;2.80;100.00;100483.34;5089056;28;20113;-80
2023/02/04 06:42:04;;;;;;;53.33;48.88;;;;;;;2.80;100.00;100486.78;5084291;28;20049;-80
2023/02/04 06:44:31;;;;;;;46.33;43.47;;;;;;;3.06;100.00;100486.69;5087195;28;20040;-81
2023/02/04 06:46:57;;;;;;;45.90;42.95;;;;;;;2.99;100.00;100483.06;5083813;28;20472;-80
2023/02/04 06:49:25;;;;;;;45.13;42.33;;;;;;;3.20;100.00;100486.03;5079957;28;20109;-80
2023/02/04 06:51:54;;;;;;;44.08;41.30;;;;;;;3.17;100.00;100490.78;5074357;28;20124;-81
2023/02/04 06:54:20;;;;;;;46.13;43.25;;;;;;;3.19;100.00;100488.81;5077536;28;20049;-82
2023/02/04 06:56:49;;;;;;;45.17;42.47;;;;;;;3.17;100.00;100483.72;5086605;28;20052;-81
2023/02/04 06:59:15;;;;;;;51.95;48.00;;;;;;;3.42;100.00;100486.38;5076664;28;20109;-80
2023/02/04 07:01:42;;;;;;;44.65;41.95;;;;;;;3.38;100.00;100488.47;5073533;28;20105;-80
2023/02/04 07:04:09;;;;;;;45.08;42.17;;;;;;;3.35;100.00;100490.63;5079221;28;20097;-81
2023/02/04 07:06:36;;;;;;;46.15;42.97;;;;;;;3.25;100.00;100496.03;5083244;28;20051;-80
2023/02/04 07:09:03;;;;;;;60.03;54.35;;;;;;;3.14;100.00;100496.34;5091247;28;20048;-80
2023/02/04 07:11:30;;;;;;;61.42;56.08;;;;;;;3.48;100.00;100503.25;5083407;28;20101;-81
2023/02/04 07:13:58;;;;;;;53.30;49.25;;;;;;;3.23;100.00;100500.63;5083782;28;20059;-81
2023/02/04 07:16:24;;;;;;;45.05;42.25;;;;;;;3.41;100.00;100505.72;5079707;28;20134;-81
2023/02/04 07:18:51;;;;;;;46.38;43.50;;;;;;;3.62;100.00;100502.59;5083691;28;20056;-81
2023/02/04 07:21:18;;;;;;;52.05;48.25;;;;;;;3.22;100.00;100504.25;5082113;28;20098;-80
2023/02/04 07:23:44;;;;;;;47.08;44.17;;;;;;;3.52;100.00;100504.59;5090795;28;20048;-81
2023/02/04 07:26:11;;;;;;;45.65;43.00;;;;;;;3.77;100.00;100505.38;5084311;28;20048;-82
2023/02/04 07:28:40;;;;;;;46.22;43.42;;;;;;;3.76;100.00;100514.25;5086166;28;20125;-81
2023/02/04 07:31:08;;;;;;;45.53;42.63;;;;;;;3.44;100.00;100511.47;5080696;28;20055;-81
2023/02/04 07:33:34;;;;;;;45.63;42.83;;;;;;;3.25;100.00;100511.78;5084497;28;20484;-80
2023/02/04 07:36:01;;;;;;;45.78;42.95;;;;;;;3.20;100.00;100511.44;5083985;28;20506;-81
2023/02/04 07:38:28;;;;;;;45.60;42.78;;;;;;;3.42;100.00;100510.00;5083428;28;20460;-80
2023/02/04 07:40:55;;;;;;;46.67;43.50;;;;;;;3.20;100.00;100514.06;5083573;28;20517;-80
2023/02/04 07:43:21;;;;;;;46.30;42.90;;;;;;;3.83;100.00;100513.41;5079301;28;20105;-81
2023/02/04 07:45:48;;;;;;;45.83;42.97;;;;;;;3.08;100.00;100510.13;5073108;28;20490;-81
2023/02/04 07:48:17;;;;;;;46.60;43.80;;;;;;;3.84;100.00;100517.69;5079776;28;20060;-81
2023/02/04 07:50:43;;;;;;;46.50;43.80;;;;;;;3.68;100.00;100515.06;5079298;28;20044;-81
2023/02/04 07:53:10;;;;;;;47.40;44.60;;;;;;;3.77;100.00;100515.88;5070133;28;20140;-82
2023/02/04 07:55:37;;;;;;;47.85;44.75;;;;;;;3.38;100.00;100509.50;5078521;28;20497;-80
2023/02/04 07:58:04;;;;;;;46.28;43.35;;;;;;;3.07;100.00;100513.75;5080117;28;20084;-80
2023/02/04 08:00:31;;;;;;;44.42;41.53;;;;;;;2.92;100.00;100511.75;5077867;28;20484;-81
2023/02/04 08:02:58;;;;;;;44.20;41.60;;;;;;;2.84;100.00;100505.66;5078316;28;20053;-81
2023/02/04 08:05:26;;;;;;;43.25;40.65;;;;;;;2.43;100.00;100513.41;5076829;28;20040;-80
2023/02/04 08:07:52;;;;;;;46.72;43.92;;;;;;;2.42;100.00;100506.50;5073507;28;20052;-80
2023/02/04 08:10:20;;;;;;;44.28;41.30;;;;;;;2.81;100.00;100516.47;5079227;28;20403;-81
2023/02/04 08:12:47;;;;;;;44.38;41.70;;;;;;;2.38;100.00;100513.88;5079024;28;20048;-80
2023/02/04 08:15:13;;;;;;;44.53;41.63;;;;;;;2.66;100.00;100514.47;4371715;28;10001090;-80
2023/02/04 08:17:40;;;;;;;43.28;40.58;;;;;;;2.41;100.00;100521.41;5072925;28;20075;-80
2023/02/04 08:20:08;;;;;;;44.95;41.65;;;;;;;2.31;100.00;100512.03;5071740;28;20612;-80
2023/02/04 08:22:36;;;;;;;45.10;41.85;;;;;;;2.41;100.00;100521.41;5076590;28;20109;-80
2023/02/04 08:25:04;;;;;;;43.35;40.75;;;;;;;2.73;100.00;100509.41;5073543;28;20048;-81
2023/02/04 08:27:30;;;;;;;46.70;43.60;;;;;;;2.64;100.00;100511.19;5080954;28;20045;-80
2023/02/04 08:29:57;;;;;;;46.13;43.05;;;;;;;2.56;100.00;100511.16;5075889;28;20413;-81
2023/02/04 08:32:25;;;;;;;45.17;42.08;;;;;;;2.57;100.00;100506.72;5072731;28;20051;-81
2023/02/04 08:34:52;;;;;;;44.47;41.78;;;;;;;2.69;100.00;100513.31;5075585;28;20121;-80
2023/02/04 08:37:19;;;;;;;44.97;42.17;;;;;;;2.75;100.00;100516.16;5076501;28;20497;-81
2023/02/04 08:39:47;;;;;;;45.05;42.25;;;;;;;2.75;100.00;100510.91;5076486;28;20056;-81
2023/02/04 08:42:15;;;;;;;45.05;42.10;;;;;;;2.68;100.00;100512.50;5056506;28;20065;-81
2023/02/04 08:44:41;;;;;;;44.08;41.38;;;;;;;3.21;100.00;100513.94;5033254;28;20187;-80
2023/02/04 08:47:08;;;;;;;46.45;43.42;;;;;;;3.03;100.00;100510.63;5035732;28;20057;-80
2023/02/04 08:49:35;;;;;;;46.35;43.30;;;;;;;2.98;100.00;100500.59;5064851;28;20494;-81
2023/02/04 08:52:03;;;;;;;48.03;44.80;;;;;;;2.96;100.00;100499.94;5070099;28;20053;-80
2023/02/04 08:54:30;;;;;;;49.05;45.95;;;;;;;3.02;100.00;100502.91;5074866;28;20080;-81
2023/02/04 08:56:58;;;;;;;48.55;44.95;;;;;;;3.15;100.00;100505.88;5069434;28;20114;-81
2023/02/04 08:59:25;;;;;;;45.72;42.78;;;;;;;3.02;100.00;100501.09;5080443;28;20466;-80
2023/02/04 09:01:52;;;;;;;46.35;43.55;;;;;;;3.27;100.00;100499.34;5071419;28;20048;-81
2023/02/04 09:04:20;;;;;;;45.67;42.67;;;;;;;3.71;100.00;100506.03;5080074;28;20057;-81
2023/02/04 09:06:47;;;;;;;45.60;42.67;;;;;;;3.76;100.00;100509.81;5083940;28;20074;-81
2023/02/04 09:09:14;;;;;;;48.03;44.88;;;;;;;3.55;100.00;100494.56;5086784;28;20105;-81
2023/02/04 09:11:41;;;;;;;48.00;45.10;;;;;;;3.56;100.00;100511.94;5079286;28;20040;-81
2023/02/04 09:14:09;;;;;;;49.20;46.20;;;;;;;3.91;100.00;100502.06;5079247;28;20052;-82
2023/02/04 09:16:36;;;;;;;55.42;51.38;;;;;;;3.50;100.00;100503.91;5084851;28;20603;-80
2023/02/04 09:19:02;;;;;;;52.17;48.05;;;;;;;3.42;100.00;100508.19;5082853;28;20567;-80
2023/02/04 09:21:30;;;;;;;49.08;45.45;;;;;;;3.59;100.00;100500.28;5087247;28;20098;-81
2023/02/04 09:23:57;;;;;;;48.40;44.95;;;;;;;3.37;100.00;100504.41;5076496;28;20491;-80
2023/02/04 09:26:24;;;;;;;49.03;45.53;;;;;;;3.39;100.00;100507.72;5076622;28;20482;-80
2023/02/04 09:28:51;;;;;;;47.47;44.47;;;;;;;3.52;100.00;100491.44;5085740;28;20047;-80
2023/02/04 09:31:19;;;;;;;48.65;45.45;;;;;;;3.43;100.00;100504.56;5088264;28;20107;-80
2023/02/04 09:33:45;;;;;;;48.30;45.08;;;;;;;3.35;100.00;100496.69;5086716;28;20553;-81
2023/02/04 09:36:12;;;;;;;47.03;43.92;;;;;;;3.40;100.00;100504.91;5081672;28;20105;-80
2023/02/04 09:38:39;;;;;;;48.85;45.53;;;;;;;3.42;100.00;100494.25;5089414;28;20498;-80
2023/02/04 09:41:10;;;;;;;46.78;43.83;;;;;;;3.41;100.00;100492.59;5081495;28;20056;-81
2023/02/04 09:43:40;;;;;;;49.65;46.17;;;;;;;3.57;100.00;100505.72;5082755;28;20056;-81
2023/02/04 09:46:09;;;;;;;50.40;46.88;;;;;;;3.66;100.00;100491.59;5077820;28;20040;-81
2023/02/04 09:48:37;;;;;;;53.17;49.28;;;;;;;3.79;100.00;100492.91;5080227;28;20075;-81
2023/02/04 09:51:07;;;;;;;49.22;45.78;;;;;;;3.59;100.00;100487.97;5087022;28;20052;-81
2023/02/04 09:53:36;;;;;;;54.60;50.60;;;;;;;3.67;100.00;100485.34;5077304;28;20106;-81
2023/02/04 09:56:02;;;;;;;57.58;53.00;;;;;;;3.83;100.00;100496.81;5079828;28;20052;-81
2023/02/04 09:58:33;;;;;;;76.43;69.40;;;;;;;3.66;100.00;100498.63;5078315;28;20105;-81
2023/02/04 10:01:09;;;;;;;76.45;68.85;;;;;;;3.61;100.00;100493.91;5078959;28;20110;-80
2023/02/04 10:03:37;;;;;;;65.20;59.50;;;;;;;3.70;100.00;100484.22;5077713;28;20098;-81
2023/02/04 10:06:04;;;;;;;81.18;65.20;;;;;;;3.59;100.00;100498.50;5080323;28;20040;-81
2023/02/04 10:08:33;;;;;;;58.83;53.47;;;;;;;3.69;100.00;100490.44;5077476;28;20081;-80
2023/02/04 10:11:01;;;;;;;60.63;55.25;;;;;;;3.59;100.00;100492.41;5081139;28;20051;-81
2023/02/04 10:13:33;;;;;;;57.42;52.60;;;;;;;3.54;100.00;100498.19;5085311;28;20127;-81
2023/02/04 10:16:01;;;;;;;56.25;51.58;;;;;;;3.45;100.00;100491.31;5083745;28;20103;-81
2023/02/04 10:18:32;;;;;;;57.85;53.38;;;;;;;3.59;100.00;100502.94;5085734;28;20048;-81
2023/02/04 10:21:12;;;;;;;54.13;49.70;;;;;;;3.48;100.00;100498.84;5078078;28;20105;-80
2023/02/04 10:23:39;;;;;;;55.55;51.58;;;;;;;3.51;100.00;100503.78;5067776;28;20105;-81
2023/02/04 10:26:06;;;;;;;53.83;50.03;;;;;;;3.62;100.00;100499.97;5085843;28;20109;-81
2023/02/04 10:28:33;;;;;;;54.83;50.22;;;;;;;3.82;100.00;100506.50;5086279;28;20044;-81
2023/02/04 10:31:00;;;;;;;52.38;48.45;;;;;;;3.90;100.00;100493.38;5081166;28;20106;-81
2023/02/04 10:33:27;;;;;;;47.80;44.85;;;;;;;4.08;100.00;100500.22;5079911;28;20102;-81
2023/02/04 10:35:56;;;;;;;53.55;49.42;;;;;;;4.07;100.00;100496.75;5076219;28;20497;-82
2023/02/04 10:38:24;;;;;;;73.07;65.35;;;;;;;4.52;100.00;100505.00;5083727;28;20056;-81
2023/02/04 10:41:01;;;;;;;60.65;55.28;;;;;;;4.36;100.00;100503.25;5077253;28;20045;-81
2023/02/04 10:43:28;;;;;;;59.17;54.30;;;;;;;4.50;100.00;100506.97;5076148;28;20092;-81
2023/02/04 10:45:57;;;;;;;59.08;54.08;;;;;;;4.64;100.00;100506.25;5075989;28;20101;-81
2023/02/04 10:48:24;;;;;;;74.35;67.05;;;;;;;4.56;100.00;100496.56;5077513;28;20659;-81
2023/02/04 10:50:51;;;;;;;55.15;50.75;;;;;;;4.36;100.00;100506.69;5082840;28;20045;-81
2023/02/04 10:56:17;;;;;;;52.42;48.45;;;;;;;4.35;100.00;100502.41;5071679;28;20043;-81
2023/02/04 10:58:47;;;;;;;50.13;46.85;;;;;;;4.52;100.00;100495.28;5046768;28;20052;-81
2023/02/04 11:01:20;;;;;;;54.80;50.63;;;;;;;4.27;100.00;100504.28;5072175;28;20048;-81
2023/02/04 11:03:48;;;;;;;52.25;48.05;;;;;;;4.25;100.00;100501.81;5079541;28;20044;-81
2023/02/04 11:06:22;;;;;;;54.63;50.45;;;;;;;4.13;100.00;100511.03;5082581;28;20109;-81
2023/02/04 11:08:52;;;;;;;60.22;55.20;;;;;;;4.44;100.00;100505.00;5082679;28;20032;-81
2023/02/04 11:11:23;;;;;;;52.72;48.95;;;;;;;4.49;100.00;100502.69;5083348;28;20077;-82
2023/02/04 11:13:59;;;;;;;55.03;50.55;;;;;;;4.53;100.00;100506.63;5084285;28;20402;-81
2023/02/04 11:16:29;;;;;;;59.15;54.22;;;;;;;4.69;100.00;100496.03;5032460;28;20525;-81
2023/02/04 11:18:58;;;;;;;53.47;49.03;;;;;;;5.03;100.00;100497.47;4978048;28;20393;-82